Time;durP1;ratioP1;P1;durP2;ratioP2;P2;SDS_P1;SDS_P2;PMS_P1;PMS_P2;Temp;Humidity;BMP_temperature;BMP_pressure;BME280_temperature;BME280_humidity;BME280_pressure;Samples;Min_cycle;Max_cycle;Signal;HPM_P1;HPM_P2
2021/03/08 00:02:02;;;;;;;12.37;6.00;;;;;;;0.17;97.76;101074.59;5066065;28;20193;-73
2021/03/08 00:04:28;;;;;;;12.60;7.00;;;;;;;0.15;98.53;101084.81;5064687;28;20214;-73
2021/03/08 00:06:54;;;;;;;10.47;6.20;;;;;;;0.12;98.75;101079.63;5062160;28;20191;-73
2021/03/08 00:09:20;;;;;;;11.47;6.77;;;;;;;0.09;99.01;101084.69;5063453;28;20246;-73
2021/03/08 00:11:46;;;;;;;10.93;6.13;;;;;;;0.06;99.07;101084.59;5061916;28;20203;-73
2021/03/08 00:14:12;;;;;;;12.20;7.03;;;;;;;0.05;99.73;101084.56;5061206;28;20552;-73
2021/03/08 00:16:39;;;;;;;10.37;6.07;;;;;;;0.02;100.00;101085.38;5064642;28;20200;-73
2021/03/08 00:19:06;;;;;;;10.13;6.33;;;;;;;-0.02;100.00;101080.97;5063345;28;20218;-73
2021/03/08 00:21:32;;;;;;;12.63;6.47;;;;;;;-0.02;100.00;101078.41;5060376;28;20202;-73
2021/03/08 00:23:58;;;;;;;12.67;6.90;;;;;;;-0.07;100.00;101082.56;5065784;28;20204;-73
2021/03/08 00:26:24;;;;;;;12.80;7.57;;;;;;;-0.08;100.00;101078.28;5060599;28;20216;-73
2021/03/08 00:28:50;;;;;;;11.33;7.10;;;;;;;-0.10;100.00;101087.63;5061074;28;20293;-73
2021/03/08 00:31:16;;;;;;;13.17;6.90;;;;;;;-0.11;100.00;101089.31;5062391;28;20208;-73
2021/03/08 00:33:43;;;;;;;10.63;6.37;;;;;;;-0.11;100.00;101089.31;5072818;28;20193;-73
2021/03/08 00:36:09;;;;;;;10.30;7.13;;;;;;;-0.11;100.00;101096.13;5062489;28;20255;-73
2021/03/08 00:38:35;;;;;;;11.30;7.13;;;;;;;-0.12;100.00;101092.72;5070077;28;20227;-73
2021/03/08 00:41:01;;;;;;;13.73;7.07;;;;;;;-0.14;100.00;101098.63;5058990;28;20229;-73
2021/03/08 00:43:27;;;;;;;12.77;7.03;;;;;;;-0.13;100.00;101096.09;5065596;28;20831;-73
2021/03/08 00:45:53;;;;;;;12.17;6.67;;;;;;;-0.14;100.00;101085.81;5041645;28;20203;-73
2021/03/08 00:48:19;;;;;;;11.87;7.40;;;;;;;-0.15;100.00;101078.97;5046034;28;20267;-73
2021/03/08 00:50:48;;;;;;;11.23;7.43;;;;;;;-0.12;100.00;101091.81;5046619;28;20204;-73
2021/03/08 00:53:20;;;;;;;12.97;7.90;;;;;;;-0.12;100.00;101089.25;5041465;28;20203;-73
2021/03/08 00:55:49;;;;;;;13.97;7.53;;;;;;;-0.13;100.00;101087.53;5064097;28;20197;-73
2021/03/08 00:58:16;;;;;;;13.27;7.77;;;;;;;-0.15;100.00;101076.41;5043323;28;20256;-73
2021/03/08 01:00:42;;;;;;;10.47;6.83;;;;;;;-0.18;100.00;101082.28;5065206;28;20681;-73
2021/03/08 01:03:10;;;;;;;13.47;7.47;;;;;;;-0.18;100.00;101087.41;5040845;28;20198;-73
2021/03/08 01:05:40;;;;;;;14.07;7.53;;;;;;;-0.17;100.00;101080.63;5046322;28;20198;-73
2021/03/08 01:08:13;;;;;;;14.17;7.70;;;;;;;-0.17;100.00;101078.06;5061902;28;20280;-73
2021/03/08 01:10:42;;;;;;;13.67;7.83;;;;;;;-0.20;100.00;101073.72;5047477;28;20199;-73
2021/03/08 01:13:17;;;;;;;17.47;8.57;;;;;;;-0.20;100.00;101073.72;5040120;28;20269;-73
2021/03/08 01:15:50;;;;;;;12.67;7.07;;;;;;;-0.20;100.00;101072.00;5040749;28;21020;-73
2021/03/08 01:18:17;;;;;;;12.53;7.47;;;;;;;-0.19;100.00;101075.44;5061641;28;20229;-73
2021/03/08 01:20:43;;;;;;;13.23;7.87;;;;;;;-0.17;100.00;101080.63;5063350;28;20191;-73
2021/03/08 01:23:09;;;;;;;14.90;8.50;;;;;;;-0.16;100.00;101077.22;5062591;28;20215;-73
2021/03/08 01:25:36;;;;;;;13.73;8.43;;;;;;;-0.14;100.00;101083.25;5062758;28;20952;-73
2021/03/08 01:28:02;;;;;;;12.20;7.83;;;;;;;-0.13;100.00;101079.84;5062987;28;20234;-73
2021/03/08 01:30:32;;;;;;;15.90;8.10;;;;;;;-0.14;100.00;101081.56;5065797;28;20511;-73
2021/03/08 01:32:59;;;;;;;13.80;7.67;;;;;;;-0.14;100.00;101076.44;5063405;28;20208;-73
2021/03/08 01:35:24;;;;;;;13.73;7.80;;;;;;;-0.14;100.00;101075.53;5063313;28;20198;-73
2021/03/08 01:37:51;;;;;;;14.67;8.50;;;;;;;-0.14;100.00;101072.97;5066469;28;20218;-73
2021/03/08 01:40:20;;;;;;;16.23;8.33;;;;;;;-0.12;100.00;101068.75;5060653;28;20208;-73
2021/03/08 01:42:47;;;;;;;15.60;8.63;;;;;;;-0.10;100.00;101072.25;5065617;28;20192;-73
2021/03/08 01:45:15;;;;;;;13.97;8.10;;;;;;;-0.09;100.00;101067.16;5059671;28;20200;-73
2021/03/08 01:47:43;;;;;;;14.83;8.83;;;;;;;-0.10;100.00;101069.69;5067040;28;20225;-73
2021/03/08 01:50:14;;;;;;;14.53;8.57;;;;;;;-0.09;100.00;101071.41;5063699;28;20194;-73
2021/03/08 01:52:40;;;;;;;16.30;8.17;;;;;;;-0.09;100.00;101072.28;5062324;28;20632;-73
2021/03/08 01:55:08;;;;;;;15.40;8.63;;;;;;;-0.07;100.00;101072.31;5063646;28;20245;-73
2021/03/08 01:57:34;;;;;;;16.70;8.13;;;;;;;-0.06;100.00;101068.91;5065348;28;20227;-73
2021/03/08 02:00:01;;;;;;;15.60;8.83;;;;;;;-0.06;100.00;101074.06;5042324;28;20241;-73
2021/03/08 02:02:27;;;;;;;17.47;8.60;;;;;;;-0.06;100.00;101069.78;5056420;28;20286;-73
2021/03/08 02:04:53;;;;;;;16.37;8.93;;;;;;;-0.05;100.00;101068.97;5065991;28;20284;-73
2021/03/08 02:07:19;;;;;;;14.20;8.50;;;;;;;-0.05;100.00;101073.22;5058531;28;20195;-73
2021/03/08 02:09:45;;;;;;;16.03;8.13;;;;;;;-0.03;100.00;101071.56;5057224;28;20199;-73
2021/03/08 02:12:19;;;;;;;18.10;8.37;;;;;;;-0.02;100.00;101068.16;5057868;28;20277;-73
2021/03/08 02:14:56;;;;;;;13.77;8.57;;;;;;;0.00;100.00;101071.66;5062581;28;20208;-73
2021/03/08 02:17:29;;;;;;;15.17;8.33;;;;;;;0.00;100.00;101063.97;5057815;28;20685;-73
2021/03/08 02:20:19;;;;;;;16.90;9.27;;;;;;;0.01;100.00;101059.69;5071708;28;20685;-73
2021/03/08 02:23:30;;;;;;;15.93;8.93;;;;;;;-0.01;100.00;101069.91;5044649;28;20731;-73
2021/03/08 02:26:22;;;;;;;15.00;7.30;;;;;;;-0.05;100.00;101066.41;5041932;28;20208;-73
2021/03/08 02:29:04;;;;;;;16.03;8.27;;;;;;;-0.06;100.00;101067.22;5040262;28;20294;-73
2021/03/08 02:31:32;;;;;;;15.97;8.90;;;;;;;-0.08;100.00;101070.59;5062674;28;20225;-73
2021/03/08 02:34:02;;;;;;;18.73;8.17;;;;;;;-0.07;100.00;101075.75;5043152;28;20676;-73
2021/03/08 02:36:33;;;;;;;18.43;9.17;;;;;;;-0.06;100.00;101074.06;5056034;28;20211;-73
2021/03/08 02:39:03;;;;;;;14.70;8.43;;;;;;;-0.07;100.00;101077.44;5064670;28;20307;-73
2021/03/08 02:41:31;;;;;;;19.27;9.27;;;;;;;-0.06;100.00;101086.88;5055954;28;20194;-73
2021/03/08 02:44:00;;;;;;;14.90;9.23;;;;;;;-0.09;100.00;101089.34;5058999;28;20191;-73
2021/03/08 02:46:29;;;;;;;16.33;8.57;;;;;;;-0.09;100.00;101099.59;5054483;28;20191;-73
2021/03/08 02:48:59;;;;;;;15.70;8.37;;;;;;;-0.09;100.00;101094.47;5041452;28;20594;-73
2021/03/08 02:51:29;;;;;;;15.37;8.27;;;;;;;-0.10;100.00;101093.63;5052268;28;20252;-73
2021/03/08 02:53:59;;;;;;;14.43;8.17;;;;;;;-0.13;100.00;101090.09;5059499;28;20713;-73
2021/03/08 02:56:30;;;;;;;17.50;8.77;;;;;;;-0.14;100.00;101096.06;5069370;28;20200;-73
2021/03/08 02:58:57;;;;;;;14.93;8.43;;;;;;;-0.16;100.00;101093.44;5065048;28;20731;-73
2021/03/08 03:01:25;;;;;;;16.53;9.33;;;;;;;-0.15;100.00;101091.78;5065451;28;20289;-73
2021/03/08 03:03:54;;;;;;;14.80;8.13;;;;;;;-0.16;100.00;101085.75;5057373;28;20201;-73
2021/03/08 03:06:25;;;;;;;17.53;8.87;;;;;;;-0.18;100.00;101089.97;5064997;28;20215;-73
2021/03/08 03:09:10;;;;;;;14.40;7.90;;;;;;;-0.18;100.00;101096.81;5039796;28;20219;-73
2021/03/08 03:11:39;;;;;;;16.50;7.90;;;;;;;-0.20;100.00;101095.06;5065259;28;20281;-73
2021/03/08 03:14:06;;;;;;;17.47;9.40;;;;;;;-0.22;100.00;101093.31;5065332;28;20240;-73
2021/03/08 03:16:33;;;;;;;17.90;8.87;;;;;;;-0.23;100.00;101092.44;5067092;28;20210;-73
2021/03/08 03:19:01;;;;;;;16.90;8.70;;;;;;;-0.25;100.00;101095.78;5062600;28;20612;-73
2021/03/08 03:21:31;;;;;;;17.10;8.90;;;;;;;-0.26;100.00;101110.31;5068544;28;20208;-73
2021/03/08 03:23:59;;;;;;;16.40;9.00;;;;;;;-0.26;100.00;101115.44;5061459;28;20586;-73
2021/03/08 03:26:28;;;;;;;19.20;9.40;;;;;;;-0.25;100.00;101113.72;5064693;28;20285;-73
2021/03/08 03:28:54;;;;;;;16.70;8.73;;;;;;;-0.23;100.00;101122.31;5064977;28;20284;-73
2021/03/08 03:31:22;;;;;;;17.73;9.10;;;;;;;-0.23;100.00;101122.31;5068497;28;20194;-73
2021/03/08 03:33:48;;;;;;;15.10;8.80;;;;;;;-0.24;100.00;101125.72;5068784;28;20577;-73
2021/03/08 03:36:15;;;;;;;18.47;9.43;;;;;;;-0.26;100.00;101127.38;5063781;28;20201;-73
2021/03/08 03:38:42;;;;;;;16.77;9.20;;;;;;;-0.29;100.00;101124.72;5070421;28;20222;-73
2021/03/08 03:41:08;;;;;;;18.53;9.20;;;;;;;-0.34;100.00;101126.31;5058834;28;20199;-73
2021/03/08 03:43:36;;;;;;;18.50;10.33;;;;;;;-0.37;100.00;101137.31;5070040;28;20186;-73
2021/03/08 03:46:04;;;;;;;18.07;10.13;;;;;;;-0.42;100.00;101132.09;5059258;28;20236;-73
2021/03/08 03:48:31;;;;;;;19.80;10.23;;;;;;;-0.45;100.00;101141.41;5063156;28;20805;-73
2021/03/08 03:50:59;;;;;;;18.33;9.93;;;;;;;-0.50;100.00;101137.84;5065183;28;20206;-73
2021/03/08 03:53:25;;;;;;;16.53;9.00;;;;;;;-0.53;100.00;101137.75;5074072;28;20206;-73
2021/03/08 03:55:53;;;;;;;18.37;9.33;;;;;;;-0.59;100.00;101144.44;5066361;28;20252;-73
2021/03/08 03:58:25;;;;;;;18.77;9.17;;;;;;;-0.66;100.00;101139.13;5065235;28;20218;-73
2021/03/08 04:00:57;;;;;;;15.43;9.13;;;;;;;-0.76;100.00;101145.66;5058319;28;20204;-73
2021/03/08 04:03:29;;;;;;;16.77;9.17;;;;;;;-0.84;100.00;101149.72;5065845;28;20205;-73
2021/03/08 04:05:58;;;;;;;17.77;8.90;;;;;;;-0.94;100.00;101148.56;5065080;28;20202;-73
2021/03/08 04:08:27;;;;;;;16.63;8.70;;;;;;;-1.00;100.00;101151.81;5067155;28;20203;-73
2021/03/08 04:10:57;;;;;;;15.37;8.50;;;;;;;-1.06;100.00;101149.06;5064761;28;20237;-75
2021/03/08 04:13:29;;;;;;;18.87;10.37;;;;;;;-1.17;100.00;101156.41;5069527;28;20194;-73
2021/03/08 04:15:57;;;;;;;18.70;8.77;;;;;;;-1.23;100.00;101156.25;5062081;28;20238;-73
2021/03/08 04:18:26;;;;;;;15.60;9.13;;;;;;;-1.28;100.00;101157.81;5062964;28;20284;-73
2021/03/08 04:20:57;;;;;;;18.70;9.43;;;;;;;-1.29;100.00;101161.16;5056954;28;20214;-73
2021/03/08 04:23:26;;;;;;;15.97;8.63;;;;;;;-1.36;100.00;101172.03;5062423;28;20198;-73
2021/03/08 04:25:53;;;;;;;16.13;8.50;;;;;;;-1.39;100.00;101172.81;5060564;28;20184;-73
2021/03/08 04:28:22;;;;;;;18.53;8.67;;;;;;;-1.42;100.00;101175.28;5066490;28;20226;-73
2021/03/08 04:30:50;;;;;;;16.70;8.70;;;;;;;-1.49;100.00;101178.47;5063540;28;20596;-73
2021/03/08 04:33:18;;;;;;;16.23;9.27;;;;;;;-1.50;100.00;101176.72;5063459;28;20718;-73
2021/03/08 04:35:47;;;;;;;16.40;8.60;;;;;;;-1.53;100.00;101177.50;5059380;28;20831;-73
2021/03/08 04:38:15;;;;;;;16.13;8.17;;;;;;;-1.61;100.00;101171.25;5062859;28;20253;-73
2021/03/08 04:40:42;;;;;;;15.07;8.40;;;;;;;-1.69;100.00;101182.91;5072324;28;20194;-73
2021/03/08 04:43:10;;;;;;;15.40;8.80;;;;;;;-1.74;100.00;101189.59;5046526;28;20235;-73
2021/03/08 04:45:38;;;;;;;15.47;8.23;;;;;;;-1.81;100.00;101190.19;5075966;28;20202;-73
2021/03/08 04:48:07;;;;;;;17.50;7.90;;;;;;;-1.82;100.00;101199.53;5065591;28;20226;-73
2021/03/08 04:50:35;;;;;;;17.70;8.20;;;;;;;-1.88;100.00;101204.47;5062870;28;20241;-73
2021/03/08 04:53:04;;;;;;;16.73;9.13;;;;;;;-1.89;100.00;101200.16;5067057;28;20271;-73
2021/03/08 04:55:32;;;;;;;14.27;7.70;;;;;;;-1.98;100.00;101204.97;5069967;28;20205;-73
2021/03/08 04:57:59;;;;;;;17.73;8.47;;;;;;;-1.98;100.00;101207.53;5064087;28;20949;-73
2021/03/08 05:00:26;;;;;;;19.80;8.97;;;;;;;-2.06;100.00;101197.03;5064744;28;20213;-73
2021/03/08 05:02:58;;;;;;;17.13;9.23;;;;;;;-2.13;100.00;101205.28;5072018;28;20206;-73
2021/03/08 05:05:26;;;;;;;15.13;8.47;;;;;;;-2.20;100.00;101204.22;5060712;28;20198;-73
2021/03/08 05:07:58;;;;;;;17.97;8.27;;;;;;;-2.21;100.00;101209.28;5062283;28;20226;-73
2021/03/08 05:10:27;;;;;;;15.77;8.53;;;;;;;-2.20;100.00;101213.56;5061419;28;20562;-73
2021/03/08 05:12:55;;;;;;;18.47;8.13;;;;;;;-2.24;100.00;101209.16;5068530;28;20195;-73
2021/03/08 05:15:24;;;;;;;14.50;7.63;;;;;;;-2.27;100.00;101215.03;5061669;28;20569;-73
2021/03/08 05:17:54;;;;;;;15.07;7.57;;;;;;;-2.29;100.00;101224.31;5058647;28;20744;-73
2021/03/08 05:20:22;;;;;;;17.83;8.20;;;;;;;-2.35;100.00;101227.53;5059754;28;20202;-73
2021/03/08 05:22:49;;;;;;;13.87;8.00;;;;;;;-2.35;100.00;101229.22;5060398;28;20278;-73
2021/03/08 05:25:15;;;;;;;12.73;6.50;;;;;;;-2.39;100.00;101230.78;5052788;28;20210;-73
2021/03/08 05:27:44;;;;;;;13.80;7.40;;;;;;;-2.40;100.00;101238.41;5058477;28;20953;-73
2021/03/08 05:30:15;;;;;;;13.30;6.57;;;;;;;-2.50;100.00;101244.84;5061557;28;20203;-73
2021/03/08 05:32:45;;;;;;;11.33;6.70;;;;;;;-2.55;100.00;101252.34;5055889;28;20662;-73
2021/03/08 05:35:12;;;;;;;13.43;6.57;;;;;;;-2.59;100.00;101244.50;5057989;28;20589;-72
2021/03/08 05:37:40;;;;;;;12.00;6.90;;;;;;;-2.62;100.00;101247.84;5057944;28;21006;-73
2021/03/08 05:40:20;;;;;;;17.90;7.63;;;;;;;-2.70;100.00;101244.09;5056641;28;20514;-73
2021/03/08 05:42:52;;;;;;;16.70;7.87;;;;;;;-2.76;100.00;101248.97;5068049;28;20273;-73
2021/03/08 05:45:20;;;;;;;14.77;7.33;;;;;;;-2.72;100.00;101245.75;5063426;28;20554;-75
2021/03/08 05:48:06;;;;;;;13.23;6.43;;;;;;;-2.73;100.00;101254.19;5064211;28;20556;-72
2021/03/08 05:50:51;;;;;;;12.63;6.07;;;;;;;-2.78;100.00;101251.50;5056873;28;20904;-72
2021/03/08 05:53:50;;;;;;;10.40;6.07;;;;;;;-2.75;100.00;101264.34;5067444;28;20497;-72
2021/03/08 05:56:23;;;;;;;12.63;6.47;;;;;;;-2.79;100.00;101271.84;5070924;28;20459;-72
2021/03/08 05:59:06;;;;;;;12.27;5.70;;;;;;;-2.88;100.00;101278.31;5059413;28;20477;-72
2021/03/08 06:02:02;;;;;;;9.50;5.30;;;;;;;-2.97;100.00;101272.88;5061471;28;20464;-73
2021/03/08 06:05:10;;;;;;;9.47;5.40;;;;;;;-3.01;100.00;101283.75;5059951;28;20808;-72
2021/03/08 06:08:18;;;;;;;8.57;5.47;;;;;;;-2.97;100.00;101277.09;5054037;28;20499;-72
2021/03/08 06:10:51;;;;;;;8.57;5.00;;;;;;;-3.06;100.00;101283.59;4993586;28;20455;-72
2021/03/08 06:13:22;;;;;;;10.57;5.50;;;;;;;-3.07;100.00;101288.63;5064591;28;20553;-73
2021/03/08 06:15:54;;;;;;;9.33;5.73;;;;;;;-3.08;100.00;101290.31;5063565;28;20459;-72
2021/03/08 06:18:22;;;;;;;13.10;6.53;;;;;;;-3.11;100.00;101294.41;5058881;28;20490;-72
2021/03/08 06:20:49;;;;;;;9.37;5.17;;;;;;;-3.14;100.00;101297.69;5061503;28;20456;-72
2021/03/08 06:23:18;;;;;;;9.27;5.53;;;;;;;-3.09;100.00;101303.00;5061204;28;20450;-72
2021/03/08 06:25:44;;;;;;;9.80;5.27;;;;;;;-3.10;100.00;101303.81;5054063;28;20856;-72
2021/03/08 06:28:11;;;;;;;10.13;5.33;;;;;;;-3.12;100.00;101306.28;5056390;28;20579;-73
2021/03/08 06:30:37;;;;;;;9.10;5.00;;;;;;;-3.12;100.00;101298.63;5063201;28;20464;-72
2021/03/08 06:33:04;;;;;;;9.37;5.17;;;;;;;-3.08;100.00;101310.72;5060239;28;20459;-72
2021/03/08 06:35:30;;;;;;;13.07;5.80;;;;;;;-3.06;100.00;101320.97;5062530;28;20969;-73
2021/03/08 06:37:56;;;;;;;9.47;5.37;;;;;;;-3.01;100.00;101322.03;5060463;28;20473;-72
2021/03/08 06:40:22;;;;;;;9.10;5.07;;;;;;;-2.99;100.00;101322.97;5047822;28;20705;-72
2021/03/08 06:42:52;;;;;;;13.90;5.53;;;;;;;-2.94;100.00;101334.22;5064190;28;20823;-72
2021/03/08 06:45:22;;;;;;;7.87;4.47;;;;;;;-2.89;100.00;101336.97;5072322;28;20545;-72
2021/03/08 06:47:48;;;;;;;9.77;4.90;;;;;;;-2.86;100.00;101339.66;5069199;28;21059;-72
2021/03/08 06:50:15;;;;;;;9.20;4.93;;;;;;;-2.79;100.00;101345.88;5063270;28;20793;-72
2021/03/08 06:52:43;;;;;;;10.07;5.77;;;;;;;-2.76;100.00;101346.88;5062930;28;20448;-72
2021/03/08 06:55:10;;;;;;;11.97;4.93;;;;;;;-2.69;100.00;101353.94;5064910;28;20444;-72
2021/03/08 06:57:38;;;;;;;8.97;4.90;;;;;;;-2.62;100.00;101354.19;5063520;28;20983;-72
2021/03/08 07:00:06;;;;;;;8.73;5.40;;;;;;;-2.55;100.00;101354.50;5063788;28;21036;-72
2021/03/08 07:02:38;;;;;;;8.97;4.40;;;;;;;-2.49;100.00;101361.50;5069206;28;20465;-73
2021/03/08 07:05:05;;;;;;;9.60;5.60;;;;;;;-2.41;100.00;101370.34;5063891;28;20460;-73
2021/03/08 07:07:46;;;;;;;9.73;5.13;;;;;;;-2.33;100.00;101376.59;5064627;28;21172;-72
2021/03/08 07:10:13;;;;;;;9.73;5.37;;;;;;;-2.30;100.00;101370.75;5058802;28;20464;-72
2021/03/08 07:12:47;;;;;;;10.43;4.93;;;;;;;-2.21;100.00;101373.66;5070546;28;20451;-72
2021/03/08 07:18:44;;;;;;;8.60;4.87;;;;;;;-2.02;100.00;101385.44;5055531;28;20304;-73
2021/03/08 07:21:20;;;;;;;9.40;5.70;;;;;;;-1.98;100.00;101381.31;5062542;28;20210;-73
2021/03/08 07:23:48;;;;;;;9.00;5.17;;;;;;;-1.91;100.00;101388.41;5064469;28;20692;-72
2021/03/08 07:26:16;;;;;;;12.77;5.93;;;;;;;-1.86;100.00;101393.69;5065658;28;20186;-72
2021/03/08 07:28:42;;;;;;;11.73;6.00;;;;;;;-1.76;100.00;101401.75;5053387;28;20231;-72
2021/03/08 07:31:16;;;;;;;11.93;5.83;;;;;;;-1.68;100.00;101408.81;5055610;28;20191;-73
2021/03/08 07:33:42;;;;;;;11.33;5.30;;;;;;;-1.65;100.00;101412.38;5027516;28;20577;-73
2021/03/08 07:36:14;;;;;;;11.83;5.77;;;;;;;-1.58;100.00;101410.91;5063978;28;20205;-73
2021/03/08 07:38:40;;;;;;;9.63;5.40;;;;;;;-1.54;100.00;101416.16;5063171;28;20262;-73
2021/03/08 07:41:12;;;;;;;14.07;5.93;;;;;;;-1.41;100.00;101414.91;5064039;28;20191;-73
2021/03/08 07:43:40;;;;;;;10.10;5.30;;;;;;;-1.33;100.00;101423.72;5068020;28;20265;-74
2021/03/08 07:46:06;;;;;;;11.17;5.27;;;;;;;-1.30;100.00;101423.00;5060976;28;20679;-74
2021/03/08 07:48:32;;;;;;;14.70;6.43;;;;;;;-1.24;100.00;101414.66;5047648;28;20295;-74
2021/03/08 07:51:06;;;;;;;12.20;6.77;;;;;;;-1.17;100.00;101426.84;5067120;28;20619;-74
2021/03/08 07:53:36;;;;;;;16.57;6.73;;;;;;;-1.23;100.00;101424.94;5060775;28;20531;-74
2021/03/08 07:56:04;;;;;;;19.20;10.00;;;;;;;-1.33;98.84;101436.53;5063164;28;20567;-73
2021/03/08 07:58:31;;;;;;;17.40;8.60;;;;;;;-1.32;99.16;101437.38;5063910;28;20236;-73
2021/03/08 08:00:59;;;;;;;14.63;8.07;;;;;;;-1.21;99.18;101440.34;5064154;28;20202;-71
2021/03/08 08:03:25;;;;;;;14.83;7.60;;;;;;;-1.07;99.73;101431.47;5060370;28;20663;-73
2021/03/08 08:05:56;;;;;;;17.17;8.90;;;;;;;-0.97;99.07;101443.75;5047169;28;20202;-74
2021/03/08 08:08:25;;;;;;;16.97;9.40;;;;;;;-0.98;96.35;101441.13;5060064;28;20306;-74
2021/03/08 08:10:53;;;;;;;18.50;9.57;;;;;;;-0.93;95.99;101449.84;5048573;28;20198;-73
2021/03/08 08:13:23;;;;;;;19.27;8.37;;;;;;;-0.91;95.78;101453.34;5058548;28;20216;-73
2021/03/08 08:15:50;;;;;;;18.80;8.90;;;;;;;-0.80;95.96;101448.56;5064529;28;20202;-72
2021/03/08 08:18:18;;;;;;;15.43;7.57;;;;;;;-0.74;93.01;101459.00;5061553;28;20218;-72
2021/03/08 08:20:48;;;;;;;14.07;7.83;;;;;;;-0.72;91.65;101461.63;5067674;28;20195;-74
2021/03/08 08:23:15;;;;;;;17.83;9.70;;;;;;;-0.64;92.80;101460.19;5063615;28;20210;-73
2021/03/08 08:25:44;;;;;;;15.50;8.47;;;;;;;-0.58;92.92;101451.03;5059014;28;20210;-73
2021/03/08 08:28:12;;;;;;;16.13;8.00;;;;;;;-0.49;91.77;101458.13;5060910;28;20640;-73
2021/03/08 08:30:38;;;;;;;13.40;7.77;;;;;;;-0.50;85.16;101476.03;5060566;28;20211;-73
2021/03/08 08:33:04;;;;;;;19.57;8.17;;;;;;;-0.48;85.36;101471.81;5060693;28;20241;-73
2021/03/08 08:35:31;;;;;;;18.37;7.53;;;;;;;-0.47;85.92;101469.31;5061433;28;20692;-73
2021/03/08 08:38:20;;;;;;;13.30;7.27;;;;;;;-0.35;83.83;101466.28;5062326;28;20771;-73
2021/03/08 08:40:47;;;;;;;16.00;8.17;;;;;;;-0.31;84.34;101469.81;5058948;28;20201;-74
2021/03/08 08:43:21;;;;;;;17.70;8.20;;;;;;;-0.29;84.39;101469.00;5064699;28;20190;-74
2021/03/08 08:45:49;;;;;;;12.93;7.17;;;;;;;-0.25;81.62;101473.41;5059562;28;20195;-74
2021/03/08 08:48:16;;;;;;;12.27;6.07;;;;;;;-0.17;82.39;101465.97;5058966;28;20827;-73
2021/03/08 08:50:47;;;;;;;13.70;7.17;;;;;;;-0.10;81.89;101469.59;5057181;28;20199;-73
2021/03/08 08:53:41;;;;;;;10.93;6.00;;;;;;;0.08;81.98;101470.16;5039481;28;20284;-72
2021/03/08 08:56:08;;;;;;;10.77;5.40;;;;;;;0.20;81.00;101472.22;5061329;28;20190;-72
2021/03/08 08:58:44;;;;;;;13.67;6.13;;;;;;;0.32;81.21;101464.03;5067937;28;20275;-73
2021/03/08 09:01:27;;;;;;;10.40;5.63;;;;;;;0.30;78.90;101475.91;5061768;28;20634;-73
2021/03/08 09:03:56;;;;;;;7.77;4.50;;;;;;;0.45;74.88;101489.19;5060522;28;20374;-71
2021/03/08 09:06:48;;;;;;;7.73;4.67;;;;;;;0.48;75.30;101488.44;5059438;28;20199;-71
2021/03/08 09:09:17;;;;;;;5.80;3.50;;;;;;;0.49;69.84;101501.31;5061154;28;20214;-71
2021/03/08 09:11:45;;;;;;;5.40;2.97;;;;;;;0.57;68.69;101502.38;5062105;28;20592;-73
2021/03/08 09:14:36;;;;;;;4.63;2.13;;;;;;;0.75;68.22;101504.59;5059789;28;20301;-72
2021/03/08 09:17:15;;;;;;;4.73;1.90;;;;;;;0.81;64.57;101508.16;5063615;28;20315;-70
2021/03/08 09:19:43;;;;;;;2.80;1.83;;;;;;;0.94;66.62;101508.56;5069412;28;20218;-72
2021/03/08 09:22:44;;;;;;;4.07;2.30;;;;;;;1.10;65.17;101514.09;5060690;28;20199;-71
2021/03/08 09:25:17;;;;;;;1.93;1.60;;;;;;;1.08;63.30;101519.19;5057736;28;20199;-73
2021/03/08 09:27:44;;;;;;;1.63;1.20;;;;;;;1.15;61.36;101522.81;5044073;28;20309;-72
2021/03/08 09:30:13;;;;;;;2.37;1.60;;;;;;;1.23;64.40;101517.88;5063485;28;20202;-72
2021/03/08 09:32:51;;;;;;;2.17;1.20;;;;;;;1.25;59.70;101532.50;5060306;28;20191;-72
2021/03/08 09:35:18;;;;;;;1.83;1.20;;;;;;;1.29;60.42;101536.03;5062424;28;20205;-72
2021/03/08 09:37:46;;;;;;;1.80;1.40;;;;;;;1.39;60.43;101534.56;5064515;28;20210;-73
2021/03/08 09:40:16;;;;;;;1.30;1.00;;;;;;;1.49;59.44;101539.09;5065974;28;20212;-73
2021/03/08 09:42:42;;;;;;;1.90;1.20;;;;;;;1.53;57.96;101551.22;5063143;28;20195;-73
2021/03/08 09:45:24;;;;;;;1.27;0.80;;;;;;;1.64;56.41;101552.34;5040199;28;20571;-72
2021/03/08 09:47:52;;;;;;;0.60;0.60;;;;;;;1.64;55.56;101544.66;5061114;28;20218;-73
2021/03/08 09:50:23;;;;;;;5.20;1.20;;;;;;;1.62;55.62;101553.13;5037633;28;20256;-70
2021/03/08 09:52:53;;;;;;;1.80;0.90;;;;;;;1.69;56.62;101548.19;5059626;28;20204;-71
2021/03/08 09:55:23;;;;;;;1.27;0.90;;;;;;;1.66;56.79;101544.69;5061309;28;20215;-72
2021/03/08 09:57:49;;;;;;;1.10;1.00;;;;;;;1.74;56.55;101543.16;5063510;28;20288;-72
2021/03/08 10:00:17;;;;;;;1.63;0.90;;;;;;;1.88;58.30;101543.50;5060576;28;20196;-72
2021/03/08 10:02:44;;;;;;;1.53;1.07;;;;;;;1.94;57.41;101547.94;5042054;28;20200;-73
2021/03/08 10:05:11;;;;;;;1.93;1.30;;;;;;;2.02;57.78;101552.44;5060180;28;20906;-73
2021/03/08 10:07:51;;;;;;;2.93;1.20;;;;;;;2.11;56.77;101548.31;5058455;28;20222;-73
2021/03/08 10:10:17;;;;;;;1.53;1.10;;;;;;;2.31;58.21;101546.22;5059852;28;20230;-71
2021/03/08 10:12:43;;;;;;;0.97;0.90;;;;;;;2.41;56.54;101545.56;5063095;28;20197;-73
2021/03/08 10:15:13;;;;;;;1.80;1.20;;;;;;;2.43;57.72;101539.63;5053974;28;20435;-70
2021/03/08 10:18:01;;;;;;;2.33;0.90;;;;;;;2.46;56.70;101552.59;5058359;28;20218;-70
2021/03/08 10:20:28;;;;;;;2.10;1.17;;;;;;;2.54;58.83;101544.16;5055185;28;20290;-72
2021/03/08 10:22:55;;;;;;;1.53;1.00;;;;;;;2.44;56.92;101554.22;5062581;28;20199;-73
2021/03/08 10:25:22;;;;;;;2.03;0.87;;;;;;;2.42;52.64;101563.63;5062939;28;20199;-71
2021/03/08 10:27:55;;;;;;;0.70;0.70;;;;;;;2.47;52.60;101558.59;5043723;28;20219;-73
2021/03/08 10:30:23;;;;;;;1.13;0.70;;;;;;;2.57;51.72;101570.84;5040650;28;20265;-72
2021/03/08 10:32:53;;;;;;;2.37;0.80;;;;;;;2.38;49.78;101573.84;5052793;28;20199;-70
2021/03/08 10:35:21;;;;;;;0.80;0.60;;;;;;;2.21;50.42;101570.88;5063193;28;20264;-72
2021/03/08 10:37:48;;;;;;;2.33;0.67;;;;;;;2.22;50.52;101573.47;5063270;28;20249;-72
2021/03/08 10:40:16;;;;;;;0.60;0.50;;;;;;;2.29;49.89;101577.06;5059100;28;20618;-71
2021/03/08 10:42:43;;;;;;;1.07;0.70;;;;;;;2.54;49.47;101573.34;5065266;28;20682;-72
2021/03/08 10:45:11;;;;;;;0.77;0.40;;;;;;;2.53;47.95;101568.16;5059939;28;20204;-72
2021/03/08 10:47:38;;;;;;;1.77;0.67;;;;;;;2.53;47.66;101575.88;5056846;28;20221;-73
2021/03/08 10:50:05;;;;;;;0.80;0.60;;;;;;;2.52;46.79;101577.59;5060744;28;20260;-71
2021/03/08 10:52:32;;;;;;;1.30;0.60;;;;;;;2.58;47.22;101574.28;5063523;28;20678;-72
2021/03/08 10:54:58;;;;;;;0.30;0.30;;;;;;;2.70;46.77;101566.81;5058386;28;20194;-72
2021/03/08 10:57:25;;;;;;;1.90;0.60;;;;;;;2.83;47.77;101571.38;5056687;28;20563;-70
2021/03/08 10:59:53;;;;;;;0.40;0.40;;;;;;;2.93;48.24;101567.28;5058101;28;20221;-72
2021/03/08 11:02:19;;;;;;;0.73;0.53;;;;;;;2.99;46.45;101558.78;5056907;28;20214;-72
2021/03/08 11:04:46;;;;;;;2.47;0.70;;;;;;;3.09;47.32;101558.16;5059099;28;20282;-72
2021/03/08 11:07:13;;;;;;;0.60;0.50;;;;;;;3.14;45.93;101560.81;5061317;28;20227;-72
2021/03/08 11:09:45;;;;;;;1.23;0.50;;;;;;;3.27;46.39;101560.19;5058432;28;20225;-72
2021/03/08 11:12:19;;;;;;;4.77;0.60;;;;;;;3.38;45.24;101555.28;5059994;28;20691;-72
2021/03/08 11:14:49;;;;;;;2.90;0.60;;;;;;;3.33;44.79;101562.06;5059142;28;20710;-72
2021/03/08 11:17:16;;;;;;;1.83;0.57;;;;;;;3.35;44.23;101555.22;5054434;28;20191;-72
2021/03/08 11:19:42;;;;;;;0.40;0.40;;;;;;;3.34;43.24;101563.78;5041244;28;20219;-72
2021/03/08 11:22:09;;;;;;;0.40;0.30;;;;;;;3.36;45.63;101559.50;5041251;28;20198;-72
2021/03/08 11:24:44;;;;;;;0.63;0.40;;;;;;;3.49;45.21;101556.31;5059885;28;20679;-72
2021/03/08 11:27:16;;;;;;;0.33;0.33;;;;;;;3.40;44.14;101554.44;5056826;28;20197;-72
2021/03/08 11:29:55;;;;;;;0.50;0.40;;;;;;;3.28;44.65;101556.78;5063403;28;20666;-71
2021/03/08 11:32:25;;;;;;;0.50;0.50;;;;;;;3.53;45.92;101552.94;5057271;28;20293;-71
2021/03/08 11:34:52;;;;;;;1.13;0.40;;;;;;;3.47;45.29;101550.28;5061342;28;20182;-72